Time;durP1;ratioP1;P1;durP2;ratioP2;P2;SDS_P1;SDS_P2;PMS_P1;PMS_P2;Temp;Humidity;BMP_temperature;BMP_pressure;BME280_temperature;BME280_humidity;BME280_pressure;Samples;Min_cycle;Max_cycle;Signal;HPM_P1;HPM_P2
2021/06/01 00:01:13;;;;;;;;;;;12.10;77.10;;;;;;5051453;28;20333;-70
2021/06/01 00:03:39;;;;;;;;;;;12.00;77.40;;;;;;5049742;28;19921;-69
2021/06/01 00:06:04;;;;;;;;;;;11.90;77.50;;;;;;5051625;28;20408;-68
2021/06/01 00:08:30;;;;;;;;;;;11.90;77.80;;;;;;5051141;28;19948;-68
2021/06/01 00:10:55;;;;;;;;;;;11.80;78.00;;;;;;5050684;28;19917;-69
2021/06/01 00:13:21;;;;;;;;;;;11.80;78.20;;;;;;5050865;28;19924;-68
2021/06/01 00:15:47;;;;;;;;;;;11.80;78.40;;;;;;5051702;28;20292;-68
2021/06/01 00:18:12;;;;;;;;;;;11.70;78.50;;;;;;5051290;28;19928;-66
2021/06/01 00:20:38;;;;;;;;;;;11.70;78.80;;;;;;5051015;28;20385;-68
2021/06/01 00:23:03;;;;;;;;;;;11.60;79.00;;;;;;5048279;28;20304;-68
2021/06/01 00:25:29;;;;;;;;;;;11.60;79.10;;;;;;5050084;28;19979;-68
2021/06/01 00:27:54;;;;;;;;;;;11.50;79.30;;;;;;5050178;28;19924;-68
2021/06/01 00:30:20;;;;;;;;;;;11.50;79.50;;;;;;5050573;28;19917;-69
2021/06/01 00:32:46;;;;;;;;;;;11.50;79.60;;;;;;5033277;28;19920;-67
2021/06/01 00:35:11;;;;;;;;;;;11.50;79.90;;;;;;5051228;28;19921;-68
2021/06/01 00:37:37;;;;;;;;;;;11.50;80.10;;;;;;5050939;28;20312;-69
2021/06/01 00:40:03;;;;;;;;;;;11.50;80.20;;;;;;5049604;28;19917;-69
2021/06/01 00:42:28;;;;;;;;;;;11.40;80.30;;;;;;5049958;28;19924;-69
2021/06/01 00:44:54;;;;;;;;;;;11.40;80.40;;;;;;5050699;28;19920;-70
2021/06/01 00:47:19;;;;;;;;;;;11.40;80.50;;;;;;5050901;28;19929;-67
2021/06/01 00:49:45;;;;;;;;;;;11.30;80.60;;;;;;5048830;28;19924;-69
2021/06/01 00:52:11;;;;;;;;;;;11.30;80.70;;;;;;5051314;28;19917;-68
2021/06/01 00:54:37;;;;;;;;;;;11.30;80.90;;;;;;5049104;28;20372;-68
2021/06/01 00:57:03;;;;;;;;;;;11.30;81.10;;;;;;5049225;28;19932;-68
2021/06/01 00:59:28;;;;;;;;;;;11.30;81.30;;;;;;5051163;28;19944;-68
2021/06/01 01:01:54;;;;;;;;;;;11.30;81.40;;;;;;5049409;28;19943;-67
2021/06/01 01:04:19;;;;;;;;;;;11.20;81.40;;;;;;5050441;28;20727;-68
2021/06/01 01:07:02;;;;;;;;;;;11.20;81.50;;;;;;5016977;28;19924;-67
2021/06/01 01:09:30;;;;;;;;;;;11.10;81.60;;;;;;5062965;28;20292;-67
2021/06/01 01:12:17;;;;;;;;;;;11.20;81.70;;;;;;5073224;28;19920;-67
2021/06/01 01:14:49;;;;;;;;;;;11.20;81.80;;;;;;5073765;28;20308;-69
2021/06/01 01:17:20;;;;;;;;;;;11.10;81.80;;;;;;5073332;28;19916;-69
2021/06/01 01:20:07;;;;;;;;;;;11.10;81.90;;;;;;5073723;28;20445;-69
2021/06/01 01:22:34;;;;;;;;;;;11.10;82.00;;;;;;5074372;28;19966;-69
2021/06/01 01:25:11;;;;;;;;;;;11.10;82.10;;;;;;5073532;28;19919;-69
2021/06/01 01:27:47;;;;;;;;;;;11.00;82.30;;;;;;5072752;28;19924;-70
2021/06/01 01:30:14;;;;;;;;;;;11.00;82.40;;;;;;5074020;28;19916;-67
2021/06/01 01:32:51;;;;;;;;;;;11.00;82.60;;;;;;5073213;28;20007;-69
2021/06/01 01:35:17;;;;;;;;;;;11.00;82.80;;;;;;5072706;28;19935;-69
2021/06/01 01:37:44;;;;;;;;;;;10.90;82.80;;;;;;5074326;28;20359;-69
2021/06/01 01:40:10;;;;;;;;;;;10.90;82.90;;;;;;5073271;28;19920;-69
2021/06/01 01:42:46;;;;;;;;;;;10.90;83.10;;;;;;5072808;28;20411;-69
2021/06/01 01:45:20;;;;;;;;;;;10.90;83.20;;;;;;5072511;28;19970;-69
2021/06/01 01:50:17;;;;;;;;;;;10.80;83.40;;;;;;5073281;28;19917;-68
2021/06/01 01:52:43;;;;;;;;;;;10.80;83.50;;;;;;5074083;28;20380;-69
2021/06/01 01:55:10;;;;;;;;;;;10.80;83.70;;;;;;5073537;28;19990;-68
2021/06/01 01:57:37;;;;;;;;;;;10.80;83.70;;;;;;5071984;28;19924;-69
2021/06/01 02:00:06;;;;;;;;;;;10.80;83.80;;;;;;5072275;28;19912;-67
2021/06/01 02:02:32;;;;;;;;;;;10.80;84.00;;;;;;5073524;28;20482;-67
2021/06/01 02:04:58;;;;;;;;;;;10.80;84.00;;;;;;5071864;28;20011;-69
2021/06/01 02:07:23;;;;;;;;;;;10.70;84.00;;;;;;5073714;28;20454;-69
2021/06/01 02:09:49;;;;;;;;;;;10.70;84.00;;;;;;5070053;28;19920;-70
2021/06/01 02:12:15;;;;;;;;;;;10.70;84.10;;;;;;5052394;28;20272;-69
2021/06/01 02:14:41;;;;;;;;;;;10.70;84.10;;;;;;5052851;28;19916;-69
2021/06/01 02:17:07;;;;;;;;;;;10.70;84.20;;;;;;5051963;28;19924;-69
2021/06/01 02:19:32;;;;;;;;;;;10.70;84.30;;;;;;5053316;28;20292;-68
2021/06/01 02:22:18;;;;;;;;;;;10.70;84.40;;;;;;5072757;28;20005;-69
2021/06/01 02:24:56;;;;;;;;;;;10.60;84.50;;;;;;5072752;28;19923;-68
2021/06/01 02:27:23;;;;;;;;;;;10.60;84.60;;;;;;5071596;28;19924;-69
2021/06/01 02:30:00;;;;;;;;;;;10.60;84.70;;;;;;5072790;28;19924;-69
2021/06/01 02:32:29;;;;;;;;;;;10.60;84.70;;;;;;5073086;28;19916;-68
2021/06/01 02:34:57;;;;;;;;;;;10.60;84.80;;;;;;5072525;28;19970;-70
2021/06/01 02:37:22;;;;;;;;;;;10.60;84.90;;;;;;5072864;28;19917;-68
2021/06/01 02:39:48;;;;;;;;;;;10.50;84.90;;;;;;5072886;28;19916;-69
2021/06/01 02:42:13;;;;;;;;;;;10.50;85.00;;;;;;5055137;28;20037;-70
2021/06/01 02:44:39;;;;;;;;;;;10.50;85.20;;;;;;5071984;28;20367;-69
2021/06/01 02:47:05;;;;;;;;;;;10.50;85.20;;;;;;5071912;28;20439;-68
2021/06/01 02:49:33;;;;;;;;;;;10.40;85.20;;;;;;5072764;28;20004;-69
2021/06/01 02:51:58;;;;;;;;;;;10.40;85.40;;;;;;5079872;22;19978;-66
2021/06/01 02:54:24;;;;;;;;;;;10.40;85.50;;;;;;5052261;28;19917;-65
2021/06/01 02:56:50;;;;;;;;;;;10.40;85.50;;;;;;5052370;28;19917;-66
2021/06/01 02:59:17;;;;;;;;;;;10.30;85.50;;;;;;5052324;28;19916;-66
2021/06/01 03:01:42;;;;;;;;;;;10.30;85.60;;;;;;5033834;28;19920;-66
2021/06/01 03:04:08;;;;;;;;;;;10.30;85.70;;;;;;5051979;28;19940;-66
2021/06/01 03:06:34;;;;;;;;;;;10.30;85.80;;;;;;5052662;28;19923;-66
2021/06/01 03:09:00;;;;;;;;;;;10.30;85.90;;;;;;5052286;28;19917;-66
2021/06/01 03:11:26;;;;;;;;;;;10.30;85.90;;;;;;5051791;28;19924;-66
2021/06/01 03:13:52;;;;;;;;;;;10.30;86.00;;;;;;5051806;28;19917;-66
2021/06/01 03:16:19;;;;;;;;;;;10.30;86.00;;;;;;5034171;28;19916;-65
2021/06/01 03:18:44;;;;;;;;;;;10.30;86.00;;;;;;5034448;28;19917;-66
2021/06/01 03:21:11;;;;;;;;;;;10.30;86.10;;;;;;5051259;28;19917;-66
2021/06/01 03:23:36;;;;;;;;;;;10.30;86.20;;;;;;5033687;28;19924;-66
2021/06/01 03:26:03;;;;;;;;;;;10.30;86.30;;;;;;5052452;28;20410;-66
2021/06/01 03:28:29;;;;;;;;;;;10.30;86.30;;;;;;5034159;28;20038;-64
2021/06/01 03:30:55;;;;;;;;;;;10.30;86.50;;;;;;5034026;28;20257;-64
2021/06/01 03:33:21;;;;;;;;;;;10.40;86.50;;;;;;5014440;28;19923;-65
2021/06/01 03:35:47;;;;;;;;;;;10.40;86.60;;;;;;5017382;28;20300;-65
2021/06/01 03:38:13;;;;;;;;;;;10.40;86.70;;;;;;5034393;28;20450;-65
2021/06/01 03:40:38;;;;;;;;;;;10.50;86.70;;;;;;5033016;28;20331;-64
2021/06/01 03:43:04;;;;;;;;;;;10.50;86.70;;;;;;5051095;28;19924;-65
2021/06/01 03:45:30;;;;;;;;;;;10.60;86.80;;;;;;5051788;28;19952;-65
2021/06/01 03:47:56;;;;;;;;;;;10.70;86.90;;;;;;5033472;28;19956;-65
2021/06/01 03:50:22;;;;;;;;;;;10.70;87.10;;;;;;5051741;28;19916;-65
2021/06/01 03:52:48;;;;;;;;;;;10.70;87.00;;;;;;5050407;28;19928;-65
2021/06/01 03:55:13;;;;;;;;;;;10.80;87.00;;;;;;5051787;28;19950;-65
2021/06/01 03:57:39;;;;;;;;;;;10.90;87.00;;;;;;5051762;28;19920;-65
2021/06/01 04:00:06;;;;;;;;;;;11.00;87.00;;;;;;5051274;28;20293;-65
2021/06/01 04:02:38;;;;;;;;;;;11.00;86.80;;;;;;5051097;28;19921;-65
2021/06/01 04:05:04;;;;;;;;;;;11.10;86.80;;;;;;5032538;28;20391;-66
2021/06/01 04:07:29;;;;;;;;;;;11.10;86.80;;;;;;5051563;28;19917;-65
2021/06/01 04:10:04;;;;;;;;;;;11.20;86.90;;;;;;5051539;28;19951;-65
2021/06/01 04:12:29;;;;;;;;;;;11.30;87.00;;;;;;5037200;28;19991;-65
2021/06/01 04:14:55;;;;;;;;;;;11.30;87.00;;;;;;5030946;28;19941;-65
2021/06/01 04:17:20;;;;;;;;;;;11.50;87.10;;;;;;5013652;28;19917;-66
2021/06/01 04:19:46;;;;;;;;;;;11.50;87.00;;;;;;5027963;28;19917;-65
2021/06/01 04:22:11;;;;;;;;;;;11.60;87.00;;;;;;5041997;28;19967;-65
2021/06/01 04:24:37;;;;;;;;;;;11.70;86.90;;;;;;5042843;28;19917;-65
2021/06/01 04:27:03;;;;;;;;;;;11.80;87.20;;;;;;5031352;28;19960;-65
2021/06/01 04:29:28;;;;;;;;;;;11.80;86.60;;;;;;5066410;28;19956;-66
2021/06/01 04:31:54;;;;;;;;;;;11.90;86.50;;;;;;5049617;28;19917;-65
2021/06/01 04:34:20;;;;;;;;;;;11.90;86.60;;;;;;5013122;28;19917;-65
2021/06/01 04:36:45;;;;;;;;;;;12.00;86.50;;;;;;5031130;28;19917;-65
2021/06/01 04:39:11;;;;;;;;;;;12.10;86.60;;;;;;5030860;28;19929;-66
2021/06/01 04:41:37;;;;;;;;;;;12.10;86.60;;;;;;5012633;28;19917;-65
2021/06/01 04:44:03;;;;;;;;;;;12.20;86.60;;;;;;5030624;28;20644;-65
2021/06/01 04:46:29;;;;;;;;;;;12.40;86.50;;;;;;5017363;28;20003;-65
2021/06/01 04:48:54;;;;;;;;;;;12.40;86.30;;;;;;5035106;28;19924;-66
2021/06/01 04:51:20;;;;;;;;;;;12.50;86.20;;;;;;5033683;28;20063;-65
2021/06/01 04:53:49;;;;;;;;;;;12.60;86.20;;;;;;5016524;28;19917;-65
2021/06/01 04:56:14;;;;;;;;;;;12.60;86.00;;;;;;5034722;28;20014;-65
2021/06/01 04:58:40;;;;;;;;;;;12.70;86.00;;;;;;5016473;28;19975;-66
2021/06/01 05:01:05;;;;;;;;;;;12.80;86.00;;;;;;5016924;28;19917;-65
2021/06/01 05:03:31;;;;;;;;;;;12.90;86.00;;;;;;5034177;28;19928;-66
2021/06/01 05:05:57;;;;;;;;;;;13.00;85.90;;;;;;5017318;28;19917;-65
2021/06/01 05:08:22;;;;;;;;;;;13.10;85.80;;;;;;5034817;28;19921;-66
2021/06/01 05:10:48;;;;;;;;;;;13.30;85.80;;;;;;5034132;28;19921;-66
2021/06/01 05:13:13;;;;;;;;;;;13.30;85.80;;;;;;5016574;28;19979;-66
2021/06/01 05:15:39;;;;;;;;;;;13.50;85.70;;;;;;5000175;28;19917;-66
2021/06/01 05:18:05;;;;;;;;;;;13.60;85.50;;;;;;5034822;28;19920;-67
2021/06/01 05:20:30;;;;;;;;;;;13.70;85.40;;;;;;5035121;28;20020;-66
2021/06/01 05:22:56;;;;;;;;;;;13.80;85.40;;;;;;5033815;28;20447;-66
2021/06/01 05:25:21;;;;;;;;;;;14.00;85.30;;;;;;5034397;28;20009;-66
2021/06/01 05:27:47;;;;;;;;;;;14.10;85.20;;;;;;5017055;28;19979;-66
2021/06/01 05:30:16;;;;;;;;;;;14.20;85.00;;;;;;5034036;28;19920;-67
2021/06/01 05:35:18;;;;;;;;;;;14.50;84.90;;;;;;5033661;28;20297;-66
2021/06/01 05:37:44;;;;;;;;;;;14.70;84.80;;;;;;5034358;28;19924;-67
2021/06/01 05:40:10;;;;;;;;;;;14.90;84.80;;;;;;5016193;28;20012;-67
2021/06/01 05:42:36;;;;;;;;;;;15.10;84.80;;;;;;5034221;28;20008;-66
2021/06/01 05:45:02;;;;;;;;;;;15.30;85.00;;;;;;5000177;28;20373;-66
2021/06/01 05:47:27;;;;;;;;;;;15.70;85.30;;;;;;5034207;28;19937;-66
2021/06/01 05:49:53;;;;;;;;;;;16.10;86.20;;;;;;5016637;28;20373;-66
2021/06/01 05:52:19;;;;;;;;;;;17.00;88.80;;;;;;5033791;28;19929;-67
2021/06/01 05:54:44;;;;;;;;;;;18.10;89.80;;;;;;5014898;28;19955;-67
2021/06/01 05:57:10;;;;;;;;;;;19.40;90.20;;;;;;5034203;28;19917;-67
2021/06/01 05:59:35;;;;;;;;;;;20.70;88.50;;;;;;5033572;28;19995;-67
2021/06/01 06:02:01;;;;;;;;;;;21.70;86.40;;;;;;5033450;28;20428;-68
2021/06/01 06:04:27;;;;;;;;;;;22.60;83.10;;;;;;5015740;28;20321;-68
2021/06/01 06:06:52;;;;;;;;;;;23.50;81.40;;;;;;5033489;28;20057;-68
2021/06/01 06:09:18;;;;;;;;;;;24.50;78.40;;;;;;5033662;28;19983;-68
2021/06/01 06:11:43;;;;;;;;;;;25.40;75.80;;;;;;5033228;28;19921;-68
2021/06/01 06:14:09;;;;;;;;;;;26.20;72.80;;;;;;5015107;28;19925;-68
2021/06/01 06:16:39;;;;;;;;;;;27.00;69.80;;;;;;5033449;28;20293;-68
2021/06/01 06:19:05;;;;;;;;;;;27.60;66.90;;;;;;5015214;28;20016;-68
2021/06/01 06:21:31;;;;;;;;;;;27.80;62.70;;;;;;5033318;28;19953;-68
2021/06/01 06:23:57;;;;;;;;;;;27.70;59.80;;;;;;5033006;28;19921;-68
2021/06/01 06:26:25;;;;;;;;;;;27.60;58.10;;;;;;5015317;28;20060;-68
2021/06/01 06:28:51;;;;;;;;;;;27.50;56.90;;;;;;5033296;28;19920;-68
2021/06/01 06:31:16;;;;;;;;;;;27.50;55.50;;;;;;5032737;28;19917;-69
2021/06/01 06:33:42;;;;;;;;;;;27.50;54.20;;;;;;4998733;28;20384;-68
2021/06/01 06:36:08;;;;;;;;;;;27.50;53.20;;;;;;4999242;28;19918;-69
2021/06/01 06:38:33;;;;;;;;;;;27.50;52.10;;;;;;5032685;28;20329;-69
2021/06/01 06:41:15;;;;;;;;;;;27.70;51.70;;;;;;5033030;28;19939;-69
2021/06/01 06:43:45;;;;;;;;;;;28.00;50.40;;;;;;5032366;28;19928;-69
2021/06/01 06:46:15;;;;;;;;;;;28.50;49.80;;;;;;5032086;28;19926;-68
2021/06/01 06:48:43;;;;;;;;;;;28.80;48.20;;;;;;5014114;28;19999;-69
2021/06/01 06:51:17;;;;;;;;;;;29.20;47.30;;;;;;5031986;28;19922;-69
2021/06/01 06:53:51;;;;;;;;;;;29.90;47.00;;;;;;5013561;28;20000;-69
2021/06/01 06:56:17;;;;;;;;;;;30.80;45.70;;;;;;5015417;28;20360;-69
2021/06/01 06:58:43;;;;;;;;;;;31.80;44.60;;;;;;5031633;28;19996;-69
2021/06/01 07:01:09;;;;;;;;;;;32.70;42.80;;;;;;5031421;28;19953;-69
2021/06/01 07:03:35;;;;;;;;;;;33.20;40.20;;;;;;4997046;28;19921;-69
2021/06/01 07:06:00;;;;;;;;;;;33.30;38.30;;;;;;4996303;28;20005;-69
2021/06/01 07:08:26;;;;;;;;;;;33.30;37.50;;;;;;5030966;28;19923;-71
2021/06/01 07:10:52;;;;;;;;;;;33.80;36.90;;;;;;5013470;28;19917;-70
2021/06/01 07:13:19;;;;;;;;;;;34.00;35.40;;;;;;5012900;28;20407;-70
2021/06/01 07:15:50;;;;;;;;;;;34.00;34.40;;;;;;5030918;28;20340;-70
2021/06/01 07:18:16;;;;;;;;;;;34.10;33.90;;;;;;5030661;28;19945;-70
2021/06/01 07:20:41;;;;;;;;;;;34.10;33.40;;;;;;5030978;28;20377;-70
2021/06/01 07:23:07;;;;;;;;;;;33.90;32.80;;;;;;5030744;28;20298;-70
2021/06/01 07:25:33;;;;;;;;;;;33.50;32.50;;;;;;5030588;28;19925;-66
2021/06/01 07:27:58;;;;;;;;;;;33.20;32.00;;;;;;5031047;28;20252;-66
2021/06/01 07:30:24;;;;;;;;;;;32.80;31.40;;;;;;5031012;28;19917;-66
2021/06/01 07:32:50;;;;;;;;;;;32.50;31.60;;;;;;5012631;28;19917;-65
2021/06/01 07:35:16;;;;;;;;;;;32.10;32.20;;;;;;5013199;28;20385;-66
2021/06/01 07:37:42;;;;;;;;;;;31.70;32.30;;;;;;5012608;28;19917;-66
2021/06/01 07:40:08;;;;;;;;;;;31.20;31.90;;;;;;5041756;28;19927;-68
2021/06/01 07:42:33;;;;;;;;;;;30.50;31.60;;;;;;5057313;28;19928;-65
2021/06/01 07:44:59;;;;;;;;;;;30.00;31.90;;;;;;5065979;28;20054;-65
2021/06/01 07:47:25;;;;;;;;;;;29.70;32.40;;;;;;5052402;28;19917;-65
2021/06/01 07:49:51;;;;;;;;;;;29.50;32.60;;;;;;5028371;28;19939;-65
2021/06/01 07:52:16;;;;;;;;;;;29.50;32.70;;;;;;5042595;28;19920;-65
2021/06/01 07:54:42;;;;;;;;;;;29.50;32.40;;;;;;5055875;28;20333;-66
2021/06/01 07:57:08;;;;;;;;;;;29.60;32.00;;;;;;5066048;28;19923;-65
2021/06/01 07:59:33;;;;;;;;;;;29.80;31.90;;;;;;5054534;28;20335;-66
2021/06/01 08:01:59;;;;;;;;;;;30.20;32.00;;;;;;5061756;28;20292;-66
2021/06/01 08:04:24;;;;;;;;;;;30.70;31.40;;;;;;5051541;28;19968;-64
2021/06/01 08:06:50;;;;;;;;;;;31.20;30.90;;;;;;5054679;28;19920;-64
2021/06/01 08:09:16;;;;;;;;;;;31.60;30.80;;;;;;5066107;28;19916;-64
2021/06/01 08:11:41;;;;;;;;;;;31.70;30.10;;;;;;5051934;28;20380;-64
2021/06/01 08:14:07;;;;;;;;;;;31.70;29.90;;;;;;5060343;28;19917;-65
2021/06/01 08:16:33;;;;;;;;;;;31.40;29.90;;;;;;5061870;28;20380;-64
2021/06/01 08:19:17;;;;;;;;;;;31.10;29.90;;;;;;5035329;28;19924;-63
2021/06/01 08:21:52;;;;;;;;;;;30.80;29.70;;;;;;5035101;28;20296;-63
2021/06/01 08:24:17;;;;;;;;;;;30.40;29.80;;;;;;5051724;28;19943;-63
2021/06/01 08:26:43;;;;;;;;;;;30.00;29.80;;;;;;5037008;28;19916;-64
2021/06/01 08:29:09;;;;;;;;;;;29.50;29.90;;;;;;5066204;28;19920;-63
2021/06/01 08:31:34;;;;;;;;;;;29.00;29.90;;;;;;5054509;28;19921;-64
2021/06/01 08:34:00;;;;;;;;;;;28.60;30.20;;;;;;5043037;28;20266;-66
2021/06/01 08:36:27;;;;;;;;;;;28.50;30.60;;;;;;5051751;28;19992;-63
2021/06/01 08:38:53;;;;;;;;;;;28.30;30.70;;;;;;5053594;28;19943;-64
2021/06/01 08:41:19;;;;;;;;;;;28.30;30.70;;;;;;5047982;28;19917;-73
2021/06/01 08:43:47;;;;;;;;;;;28.60;31.00;;;;;;5055335;28;19966;-75
2021/06/01 08:46:12;;;;;;;;;;;29.50;32.00;;;;;;5059346;28;20019;-74
2021/06/01 08:48:38;;;;;;;;;;;31.40;32.60;;;;;;5051833;28;20420;-75
2021/06/01 08:51:06;;;;;;;;;;;33.50;32.00;;;;;;5060494;22;19973;-72
2021/06/01 08:53:34;;;;;;;;;;;35.50;31.00;;;;;;4981107;28;20004;-72
2021/06/01 08:56:00;;;;;;;;;;;37.40;30.00;;;;;;5021621;28;19956;-73
2021/06/01 08:58:25;;;;;;;;;;;38.60;28.40;;;;;;5021260;28;19952;-67
2021/06/01 09:00:51;;;;;;;;;;;39.40;27.30;;;;;;4995880;28;19925;-68
2021/06/01 09:03:20;;;;;;;;;;;40.00;26.50;;;;;;4988595;28;19925;-68
2021/06/01 09:20:58;;;;;;;;;;;42.50;24.30;;;;;;4981973;28;20271;-68
2021/06/01 09:22:36;;;;;;;;;;;43.40;24.20;;;;;;4987364;28;21005;-69
2021/06/01 09:25:05;;;;;;;;;;;45.10;24.00;;;;;;5006360;28;19956;-68
2021/06/01 09:27:51;;;;;;;;;;;45.90;22.90;;;;;;4994046;28;19917;-70
2021/06/01 09:30:35;;;;;;;;;;;46.30;23.00;;;;;;5001132;28;19918;-69
2021/06/01 09:33:02;;;;;;;;;;;46.70;22.10;;;;;;5009644;28;19944;-69
2021/06/01 09:35:43;;;;;;;;;;;46.40;21.80;;;;;;4997515;28;20439;-69
2021/06/01 09:38:08;;;;;;;;;;;46.20;21.80;;;;;;4993470;28;19937;-67
2021/06/01 09:40:34;;;;;;;;;;;46.20;21.70;;;;;;4977254;28;19914;-69
2021/06/01 09:42:59;;;;;;;;;;;46.90;22.00;;;;;;5009945;28;19930;-68
2021/06/01 09:45:25;;;;;;;;;;;47.80;21.90;;;;;;4998248;28;19979;-69
2021/06/01 09:47:52;;;;;;;;;;;48.40;21.50;;;;;;5007367;28;20404;-69
2021/06/01 09:50:29;;;;;;;;;;;48.50;21.10;;;;;;5004774;28;19925;-69
2021/06/01 09:52:57;;;;;;;;;;;48.70;20.80;;;;;;4998272;28;19983;-69
2021/06/01 09:55:33;;;;;;;;;;;48.60;20.50;;;;;;5010052;28;19918;-68
2021/06/01 09:58:00;;;;;;;;;;;48.90;20.60;;;;;;5002392;28;19925;-68
2021/06/01 10:00:27;;;;;;;;;;;49.60;20.50;;;;;;5002170;28;20385;-69
2021/06/01 10:03:03;;;;;;;;;;;50.30;20.40;;;;;;4991793;28;19927;-69
2021/06/01 10:05:31;;;;;;;;;;;50.60;20.30;;;;;;4982427;28;19924;-70
2021/06/01 10:07:57;;;;;;;;;;;50.70;20.00;;;;;;5004327;28;20370;-69
2021/06/01 10:10:27;;;;;;;;;;;51.10;19.90;;;;;;5002056;28;19922;-68
2021/06/01 10:12:57;;;;;;;;;;;51.80;20.00;;;;;;4976427;28;20003;-69
2021/06/01 10:15:24;;;;;;;;;;;52.30;19.60;;;;;;5010240;28;19918;-69
2021/06/01 10:17:50;;;;;;;;;;;52.60;19.70;;;;;;5000418;28;19948;-70
2021/06/01 10:20:17;;;;;;;;;;;52.90;19.70;;;;;;5003209;28;20011;-70
2021/06/01 10:22:43;;;;;;;;;;;52.60;19.40;;;;;;5007406;28;20023;-68
2021/06/01 10:25:09;;;;;;;;;;;51.70;19.40;;;;;;4997107;28;20386;-69
2021/06/01 10:27:35;;;;;;;;;;;51.20;19.60;;;;;;4991445;28;20013;-69
2021/06/01 10:30:00;;;;;;;;;;;51.20;19.80;;;;;;5001760;28;20008;-68
2021/06/01 10:32:28;;;;;;;;;;;50.80;19.40;;;;;;4984399;28;19922;-69
2021/06/01 10:34:55;;;;;;;;;;;49.70;19.30;;;;;;5008880;28;19924;-69
2021/06/01 10:49:05;;;;;;;;;;;48.20;20.30;;;;;;4999433;28;20390;-69
2021/06/01 10:51:28;;;;;;;;;;;48.10;20.10;;;;;;4990677;28;19928;-69
2021/06/01 10:53:54;;;;;;;;;;;47.40;20.20;;;;;;4995624;28;20027;-67
2021/06/01 10:56:19;;;;;;;;;;;46.70;20.30;;;;;;5004826;28;19971;-69
2021/06/01 10:58:53;;;;;;;;;;;46.20;20.40;;;;;;4998732;28;19922;-68
2021/06/01 11:09:32;;;;;;;;;;;45.70;21.20;;;;;;4991131;28;20457;-71
2021/06/01 11:12:15;;;;;;;;;;;46.00;21.10;;;;;;4983452;28;19917;-72
2021/06/01 11:14:40;;;;;;;;;;;45.60;20.90;;;;;;4998584;28;19922;-71
2021/06/01 11:17:06;;;;;;;;;;;44.70;21.00;;;;;;5009120;28;19925;-71
2021/06/01 11:19:53;;;;;;;;;;;43.90;21.30;;;;;;4996862;28;19999;-71
2021/06/01 11:22:32;;;;;;;;;;;43.50;21.60;;;;;;5002000;28;19925;-69
2021/06/01 11:33:16;;;;;;;;;;;42.90;21.60;;;;;;4976560;28;20606;-67
2021/06/01 11:35:44;;;;;;;;;;;41.70;21.70;;;;;;4973818;28;19914;-67
2021/06/01 11:38:20;;;;;;;;;;;40.40;22.10;;;;;;4990860;28;19994;-68
2021/06/01 11:43:32;;;;;;;;;;;37.90;22.60;;;;;;4990592;28;20306;-65
2021/06/01 11:46:23;;;;;;;;;;;36.70;23.10;;;;;;4973832;28;19938;-68
2021/06/01 11:53:51;;;;;;;;;;;35.60;24.40;;;;;;4990859;28;19921;-66
2021/06/01 11:56:33;;;;;;;;;;;35.60;24.30;;;;;;4992128;28;20470;-66
2021/06/01 12:04:34;;;;;;;;;;;34.00;25.10;;;;;;4991863;28;19918;-67
2021/06/01 12:12:46;;;;;;;;;;;33.40;26.00;;;;;;4973703;28;19925;-67
2021/06/01 12:18:00;;;;;;;;;;;33.30;25.90;;;;;;4977938;28;19925;-65
2021/06/01 12:20:26;;;;;;;;;;;32.90;26.10;;;;;;5005470;28;19918;-65
2021/06/01 12:22:52;;;;;;;;;;;32.40;26.30;;;;;;4986295;28;19964;-65
2021/06/01 12:25:19;;;;;;;;;;;32.10;26.40;;;;;;5002256;28;20001;-64
2021/06/01 12:27:56;;;;;;;;;;;31.80;26.60;;;;;;4997482;28;19952;-65
2021/06/01 12:33:07;;;;;;;;;;;31.20;27.00;;;;;;4982551;28;20386;-65
2021/06/01 12:36:11;;;;;;;;;;;30.90;27.30;;;;;;4981142;28;19925;-65
2021/06/01 12:42:03;;;;;;;;;;;30.80;27.70;;;;;;5010004;28;19975;-67
2021/06/01 12:44:36;;;;;;;;;;;30.80;28.00;;;;;;4993491;28;19921;-67
2021/06/01 12:47:18;;;;;;;;;;;30.70;27.50;;;;;;5011513;28;19917;-65
2021/06/01 13:12:10;;;;;;;;;;;29.60;28.70;;;;;;4989792;28;20001;-72
2021/06/01 13:20:22;;;;;;;;;;;29.30;28.90;;;;;;4977543;28;19941;-73
2021/06/01 13:36:51;;;;;;;;;;;29.30;29.50;;;;;;4977115;28;19964;-65
2021/06/01 13:39:25;;;;;;;;;;;29.30;29.80;;;;;;4993861;28;20008;-65
2021/06/01 13:47:14;;;;;;;;;;;29.30;30.10;;;;;;4994255;28;19918;-66
2021/06/01 13:50:04;;;;;;;;;;;29.20;30.20;;;;;;4997378;28;19918;-65
2021/06/01 13:55:09;;;;;;;;;;;29.10;30.50;;;;;;5004630;28;19921;-70
2021/06/01 14:00:29;;;;;;;;;;;29.30;31.10;;;;;;5010220;28;19921;-72
2021/06/01 14:11:31;;;;;;;;;;;29.20;30.60;;;;;;5001059;28;19957;-71
2021/06/01 14:30:22;;;;;;;;;;;28.10;30.70;;;;;;4981246;28;19917;-71
2021/06/01 15:49:28;;;;;;;;;;;24.80;30.80;;;;;;5029811;28;19936;-66
2021/06/01 16:44:18;;;;;;;;;;;23.20;28.00;;;;;;5033414;28;19921;-69
2021/06/01 17:03:18;;;;;;;;;;;22.60;27.10;;;;;;5033303;28;19925;-70
2021/06/01 17:05:51;;;;;;;;;;;22.40;27.00;;;;;;5033590;28;19921;-70
2021/06/01 17:08:47;;;;;;;;;;;22.40;27.00;;;;;;5035114;28;20047;-69
2021/06/01 17:11:18;;;;;;;;;;;22.30;27.00;;;;;;5030543;28;20020;-70
2021/06/01 17:13:54;;;;;;;;;;;22.20;26.90;;;;;;5033227;28;19921;-70
2021/06/01 17:19:53;;;;;;;;;;;22.20;27.10;;;;;;5029366;28;19917;-70
2021/06/01 17:30:23;;;;;;;;;;;22.10;27.10;;;;;;5033548;28;19921;-70
2021/06/01 17:35:14;;;;;;;;;;;21.60;27.50;;;;;;5033708;28;19921;-71
2021/06/01 17:37:39;;;;;;;;;;;21.50;27.70;;;;;;5034433;28;19917;-69
2021/06/01 17:40:07;;;;;;;;;;;21.30;28.00;;;;;;5033494;28;19967;-70
2021/06/01 17:42:32;;;;;;;;;;;21.20;28.20;;;;;;5030600;28;20338;-70
2021/06/01 17:45:00;;;;;;;;;;;21.10;28.50;;;;;;5031756;28;19965;-71
2021/06/01 17:47:26;;;;;;;;;;;21.00;28.80;;;;;;5025503;28;19917;-71
2021/06/01 17:49:52;;;;;;;;;;;20.80;29.00;;;;;;5032480;28;19968;-69
2021/06/01 17:52:25;;;;;;;;;;;20.70;29.40;;;;;;5031348;28;19921;-70
2021/06/01 17:54:52;;;;;;;;;;;20.50;29.60;;;;;;5032009;28;20400;-71
2021/06/01 17:57:19;;;;;;;;;;;20.40;29.90;;;;;;5027987;28;19932;-69
2021/06/01 17:59:45;;;;;;;;;;;20.30;30.20;;;;;;5034187;28;19928;-69
2021/06/01 18:02:12;;;;;;;;;;;20.20;30.70;;;;;;5031945;28;19956;-70
2021/06/01 18:04:38;;;;;;;;;;;20.10;31.10;;;;;;5047309;28;19928;-70
2021/06/01 18:07:09;;;;;;;;;;;20.10;31.50;;;;;;5036124;28;19916;-70
2021/06/01 19:01:30;;;;;;;;;;;19.10;36.20;;;;;;5035321;28;20327;-70
2021/06/01 19:25:25;;;;;;;;;;;18.30;38.90;;;;;;5021507;28;19925;-69
2021/06/01 19:50:04;;;;;;;;;;;17.60;41.10;;;;;;5028351;28;19917;-70
2021/06/01 19:52:31;;;;;;;;;;;17.40;41.40;;;;;;5029480;28;19921;-70
2021/06/01 19:54:58;;;;;;;;;;;17.30;41.70;;;;;;5027659;28;20323;-69
2021/06/01 19:57:25;;;;;;;;;;;17.10;42.10;;;;;;5030127;28;19971;-69
2021/06/01 19:59:52;;;;;;;;;;;17.00;42.50;;;;;;5037411;28;19923;-69
2021/06/01 20:02:20;;;;;;;;;;;16.90;42.80;;;;;;5028350;28;19928;-70
2021/06/01 20:04:49;;;;;;;;;;;16.80;43.10;;;;;;5033900;28;19988;-70
2021/06/01 20:07:15;;;;;;;;;;;16.60;43.30;;;;;;5029470;28;19996;-70
2021/06/01 20:09:40;;;;;;;;;;;16.50;43.60;;;;;;5012446;28;20432;-69
2021/06/01 20:12:07;;;;;;;;;;;16.40;43.90;;;;;;5026835;28;19917;-70
2021/06/01 20:14:33;;;;;;;;;;;16.30;44.20;;;;;;5028679;28;19924;-71
2021/06/01 20:17:00;;;;;;;;;;;16.20;44.60;;;;;;5035457;28;19928;-70
2021/06/01 20:19:27;;;;;;;;;;;16.00;45.00;;;;;;5027177;28;20011;-70
2021/06/01 20:21:55;;;;;;;;;;;15.90;45.40;;;;;;5011706;28;19926;-70
2021/06/01 20:24:25;;;;;;;;;;;15.80;45.80;;;;;;5027485;28;20410;-70
2021/06/01 20:26:51;;;;;;;;;;;15.70;46.10;;;;;;5028248;28;20396;-69
2021/06/01 20:29:21;;;;;;;;;;;15.60;46.50;;;;;;5029749;28;19917;-70
2021/06/01 20:31:57;;;;;;;;;;;15.50;46.80;;;;;;5028753;28;19917;-70
2021/06/01 20:34:23;;;;;;;;;;;15.50;47.10;;;;;;5028867;28;19924;-70
2021/06/01 20:36:48;;;;;;;;;;;15.50;47.50;;;;;;5011467;28;20385;-70
2021/06/01 20:39:14;;;;;;;;;;;15.40;47.80;;;;;;5028157;28;20360;-69
2021/06/01 20:41:42;;;;;;;;;;;15.40;48.10;;;;;;5029303;28;19917;-72
2021/06/01 20:44:07;;;;;;;;;;;15.40;48.40;;;;;;5023722;28;19921;-69
2021/06/01 20:46:33;;;;;;;;;;;15.30;48.70;;;;;;5032903;28;19932;-69
2021/06/01 20:48:59;;;;;;;;;;;15.30;49.10;;;;;;5010144;28;20336;-68
2021/06/01 20:51:25;;;;;;;;;;;15.20;49.30;;;;;;5027388;28;20462;-69
2021/06/01 20:53:52;;;;;;;;;;;15.20;49.60;;;;;;5028152;28;19921;-68
2021/06/01 20:56:18;;;;;;;;;;;15.10;49.90;;;;;;4992838;28;20006;-69
2021/06/01 20:58:45;;;;;;;;;;;15.00;50.40;;;;;;5025706;28;20607;-70
2021/06/01 21:01:14;;;;;;;;;;;15.00;50.80;;;;;;5027534;28;19921;-69
2021/06/01 21:03:44;;;;;;;;;;;15.00;51.10;;;;;;5026070;28;19925;-69
2021/06/01 21:06:10;;;;;;;;;;;14.90;51.50;;;;;;5026098;28;20259;-69
2021/06/01 21:08:37;;;;;;;;;;;14.80;51.70;;;;;;5028889;28;19921;-69